Time;durP1;ratioP1;P1;durP2;ratioP2;P2;SDS_P1;SDS_P2;PMS_P1;PMS_P2;Temp;Humidity;BMP_temperature;BMP_pressure;BME280_temperature;BME280_humidity;BME280_pressure;Samples;Min_cycle;Max_cycle;Signal;HPM_P1;HPM_P2
2022/08/10 00:01:52;;;;;;;6.60;2.72;;;;;;;21.20;42.37;101208.00;5099517;27;20105;-74
2022/08/10 00:04:20;;;;;;;3.75;2.60;;;;;;;21.14;42.23;101209.31;5107115;27;20044;-73
2022/08/10 00:06:51;;;;;;;3.22;2.67;;;;;;;21.08;42.55;101204.41;5108106;27;20399;-71
2022/08/10 00:09:19;;;;;;;4.93;3.20;;;;;;;21.04;42.62;101202.06;5107211;27;20105;-73
2022/08/10 00:11:45;;;;;;;3.88;3.20;;;;;;;21.01;42.35;101189.69;5106106;27;20067;-74
2022/08/10 00:14:12;;;;;;;5.32;2.67;;;;;;;21.09;42.64;101211.53;5106389;27;20043;-75
2022/08/10 00:16:39;;;;;;;6.28;2.63;;;;;;;21.06;42.67;101206.38;5103533;27;20070;-72
2022/08/10 00:19:05;;;;;;;4.32;2.90;;;;;;;20.98;42.84;101193.50;5107853;27;20040;-74
2022/08/10 00:21:32;;;;;;;3.55;2.63;;;;;;;20.90;42.82;101184.31;5109625;27;20075;-73
2022/08/10 00:23:58;;;;;;;5.93;2.92;;;;;;;20.99;42.79;101205.13;5107076;27;20047;-75
2022/08/10 00:26:25;;;;;;;6.53;2.85;;;;;;;20.92;42.95;101199.38;5099856;27;20079;-74
2022/08/10 00:29:11;;;;;;;5.57;2.83;;;;;;;20.96;43.07;101203.50;5107069;27;20729;-73
2022/08/10 00:31:38;;;;;;;4.07;3.20;;;;;;;20.93;43.22;101202.91;5109406;27;20047;-72
2022/08/10 00:34:24;;;;;;;3.95;3.13;;;;;;;20.84;43.20;101184.75;5097970;27;20453;-72
2022/08/10 00:36:51;;;;;;;3.10;2.80;;;;;;;20.82;43.45;101186.72;5102507;28;20146;-74
2022/08/10 00:39:17;;;;;;;4.65;3.05;;;;;;;20.78;43.32;101180.69;5102231;27;20600;-74
2022/08/10 00:41:44;;;;;;;4.43;3.00;;;;;;;20.78;43.80;101186.09;5102903;27;20083;-72
2022/08/10 00:44:26;;;;;;;3.90;2.67;;;;;;;20.67;43.84;101175.28;5106996;27;20043;-75
2022/08/10 00:46:53;;;;;;;3.15;2.72;;;;;;;20.72;43.88;101180.34;5105441;27;20079;-74
2022/08/10 00:49:20;;;;;;;5.85;3.03;;;;;;;20.70;43.85;101191.22;5105767;27;20130;-75
2022/08/10 00:51:47;;;;;;;4.60;3.35;;;;;;;20.67;44.12;101178.84;5103602;28;20105;-72
2022/08/10 00:54:15;;;;;;;5.70;2.65;;;;;;;20.49;44.17;101150.66;5109294;27;20154;-74
2022/08/10 00:56:50;;;;;;;3.58;3.00;;;;;;;20.63;44.28;101171.97;5113326;28;20055;-72
2022/08/10 00:59:37;;;;;;;4.05;2.92;;;;;;;20.45;44.20;101140.25;5105053;27;20047;-72
2022/08/10 01:02:23;;;;;;;10.25;2.83;;;;;;;20.48;44.39;101151.63;5107983;27;20137;-74
2022/08/10 01:04:51;;;;;;;3.97;3.00;;;;;;;20.40;44.49;101142.44;5103620;28;20070;-74
2022/08/10 01:07:48;;;;;;;4.07;3.03;;;;;;;20.53;44.84;101180.88;5108911;27;20122;-74
2022/08/10 01:10:41;;;;;;;3.85;3.00;;;;;;;20.40;44.67;101162.13;5105296;27;20139;-75
2022/08/10 01:13:32;;;;;;;3.25;2.67;;;;;;;20.44;44.97;101176.22;5075728;28;20071;-74
2022/08/10 01:16:21;;;;;;;6.30;2.80;;;;;;;20.38;45.24;101168.59;5105247;27;20127;-74
2022/08/10 01:19:03;;;;;;;4.45;3.17;;;;;;;20.30;45.31;101153.00;5106607;28;20472;-73
2022/08/10 01:21:41;;;;;;;4.65;2.92;;;;;;;20.22;45.42;101152.72;5096662;28;20143;-74
2022/08/10 01:24:41;;;;;;;4.40;2.97;;;;;;;20.36;45.36;101166.00;5111024;27;20062;-72
2022/08/10 01:27:30;;;;;;;6.82;3.35;;;;;;;20.35;45.29;101171.47;5100072;27;20074;-76
2022/08/10 01:30:05;;;;;;;3.25;2.95;;;;;;;20.30;45.45;101174.53;5104135;28;20044;-72
2022/08/10 01:32:52;;;;;;;4.32;3.40;;;;;;;20.29;45.76;101172.81;5102898;28;20048;-74
2022/08/10 01:35:49;;;;;;;6.57;3.03;;;;;;;20.07;45.61;101143.97;5102114;28;20096;-73
2022/08/10 01:38:35;;;;;;;3.65;2.83;;;;;;;20.10;45.81;101151.81;5103611;27;20067;-75
2022/08/10 01:41:10;;;;;;;7.75;3.20;;;;;;;20.15;46.08;101165.75;5098994;28;20533;-73
2022/08/10 01:43:41;;;;;;;7.40;3.15;;;;;;;20.11;45.75;101169.66;5106334;27;20067;-74
2022/08/10 01:46:11;;;;;;;3.67;2.90;;;;;;;20.01;46.06;101147.09;5103802;28;20067;-75
2022/08/10 01:48:42;;;;;;;4.05;3.22;;;;;;;20.10;45.80;101175.16;5107112;28;20083;-74
2022/08/10 01:51:20;;;;;;;6.15;2.72;;;;;;;20.07;45.83;101180.75;5104669;27;20132;-75
2022/08/10 01:53:56;;;;;;;4.95;3.10;;;;;;;19.96;45.98;101165.44;5105029;28;20063;-77
2022/08/10 01:56:25;;;;;;;7.57;3.90;;;;;;;20.01;46.26;101184.75;5104820;28;20072;-75
2022/08/10 01:58:57;;;;;;;4.50;3.15;;;;;;;20.00;46.35;101187.53;5104163;28;20043;-74
2022/08/10 02:01:28;;;;;;;3.72;3.20;;;;;;;19.94;46.42;101175.44;5106398;28;20075;-76
2022/08/10 02:03:59;;;;;;;5.22;3.30;;;;;;;19.97;46.45;101191.34;5097297;28;20056;-74
2022/08/10 02:06:33;;;;;;;7.47;3.05;;;;;;;19.78;46.40;101150.66;5102433;28;20131;-72
2022/08/10 02:09:02;;;;;;;3.55;3.00;;;;;;;19.90;46.42;101182.84;5100870;28;20507;-75
2022/08/10 02:11:33;;;;;;;4.90;3.10;;;;;;;19.80;46.84;101176.44;5102446;28;20834;-75
2022/08/10 02:14:22;;;;;;;5.10;3.20;;;;;;;19.82;46.68;101181.72;5103215;28;20507;-75
2022/08/10 02:16:50;;;;;;;7.05;3.28;;;;;;;19.75;47.05;101183.13;5101117;28;20124;-73
2022/08/10 02:19:20;;;;;;;3.47;3.20;;;;;;;19.63;46.91;101163.38;5108598;28;20158;-75
2022/08/10 02:21:49;;;;;;;5.35;3.35;;;;;;;19.70;47.17;101185.28;5104069;28;20180;-74
2022/08/10 02:24:39;;;;;;;4.22;3.40;;;;;;;19.45;47.46;101162.84;5103879;27;20078;-74
2022/08/10 02:27:07;;;;;;;3.97;3.10;;;;;;;19.52;47.57;101176.72;5105295;28;20078;-74
2022/08/10 02:29:35;;;;;;;3.72;3.15;;;;;;;19.41;47.65;101169.41;5107956;28;20640;-74
2022/08/10 02:32:09;;;;;;;5.57;3.88;;;;;;;19.51;47.59;101186.63;5104318;28;20036;-76
2022/08/10 02:34:38;;;;;;;5.85;3.42;;;;;;;19.53;47.54;101194.53;5099762;28;20148;-74
2022/08/10 02:37:07;;;;;;;7.45;3.60;;;;;;;19.54;47.90;101193.56;5101028;28;20043;-74
2022/08/10 02:39:39;;;;;;;3.80;2.97;;;;;;;19.50;48.09;101194.78;5102689;27;20415;-76
2022/08/10 02:42:20;;;;;;;3.90;3.28;;;;;;;19.36;47.83;101174.22;5103018;28;20108;-75
2022/08/10 02:45:16;;;;;;;4.95;3.03;;;;;;;19.48;48.21;101196.69;5104158;28;20051;-76
2022/08/10 02:48:13;;;;;;;8.05;3.20;;;;;;;19.44;48.04;101187.97;5100730;28;20054;-74
2022/08/10 02:50:42;;;;;;;5.65;3.33;;;;;;;19.34;48.06;101178.00;5106865;27;20567;-73
2022/08/10 02:53:17;;;;;;;4.43;3.10;;;;;;;19.30;48.15;101173.81;5114854;27;20867;-74
2022/08/10 02:56:08;;;;;;;5.03;3.38;;;;;;;19.35;48.25;101187.78;5102441;28;20044;-74
2022/08/10 02:58:52;;;;;;;5.95;3.40;;;;;;;19.41;48.36;101206.13;5104921;27;20131;-75
2022/08/10 03:01:24;;;;;;;5.10;3.38;;;;;;;19.39;48.49;101217.00;5114636;27;20079;-75
2022/08/10 03:04:04;;;;;;;3.53;3.13;;;;;;;19.39;48.61;101216.13;5107999;27;20081;-75
2022/08/10 03:06:42;;;;;;;3.58;3.17;;;;;;;19.35;48.83;101217.34;5103770;28;20142;-75
2022/08/10 03:09:12;;;;;;;5.40;3.35;;;;;;;19.18;48.74;101192.53;5105977;27;20181;-75
2022/08/10 03:11:42;;;;;;;5.80;3.40;;;;;;;19.15;49.05;101190.06;5105980;27;20044;-75
2022/08/10 03:14:30;;;;;;;5.60;3.45;;;;;;;19.19;48.98;101199.63;5112533;27;20043;-75
2022/08/10 03:17:00;;;;;;;5.32;3.17;;;;;;;19.25;49.24;101212.59;5108745;27;20093;-75
2022/08/10 03:19:30;;;;;;;7.50;3.15;;;;;;;19.08;49.10;101177.16;5103675;28;20570;-72
2022/08/10 03:22:18;;;;;;;4.03;3.20;;;;;;;19.20;48.97;101200.47;5103292;27;20052;-75
2022/08/10 03:24:45;;;;;;;5.22;3.85;;;;;;;19.24;48.95;101207.31;5098964;28;20128;-74
2022/08/10 03:27:13;;;;;;;7.45;3.45;;;;;;;19.19;49.14;101196.06;5107233;27;20050;-73
2022/08/10 03:29:40;;;;;;;3.65;3.22;;;;;;;19.15;49.25;101189.19;5101145;28;20105;-76
2022/08/10 03:32:29;;;;;;;3.55;3.20;;;;;;;19.21;49.40;101204.84;5104086;27;20046;-76
2022/08/10 03:34:57;;;;;;;5.60;3.10;;;;;;;19.28;49.28;101200.78;5106781;28;20048;-74
2022/08/10 03:37:26;;;;;;;3.67;3.22;;;;;;;19.14;49.34;101177.59;5108940;27;20381;-75
2022/08/10 03:39:54;;;;;;;4.18;2.83;;;;;;;19.21;49.22;101194.97;5103420;27;20048;-70
2022/08/10 03:42:22;;;;;;;3.40;3.10;;;;;;;19.17;49.80;101198.84;5109344;27;20431;-74
2022/08/10 03:44:51;;;;;;;4.05;3.30;;;;;;;19.15;49.45;101194.56;5108691;27;20139;-72
2022/08/10 03:47:20;;;;;;;3.63;3.17;;;;;;;19.13;49.66;101191.97;5105370;27;20071;-74
2022/08/10 03:49:48;;;;;;;4.75;3.53;;;;;;;19.08;49.73;101182.50;5097323;27;20070;-72
2022/08/10 03:52:16;;;;;;;6.05;3.45;;;;;;;19.04;49.68;101186.41;5102031;27;20060;-72
2022/08/10 03:54:43;;;;;;;7.13;3.63;;;;;;;18.90;50.15;101163.19;5107789;27;20075;-73
2022/08/10 03:57:11;;;;;;;5.65;3.75;;;;;;;19.03;49.95;101185.53;5105691;27;20084;-75
2022/08/10 03:59:38;;;;;;;5.32;3.90;;;;;;;18.99;50.07;101184.03;5102599;27;20571;-74
2022/08/10 04:02:05;;;;;;;5.50;3.58;;;;;;;18.98;50.44;101184.13;5101733;28;20044;-74
2022/08/10 04:04:52;;;;;;;4.90;3.20;;;;;;;19.02;50.15;101193.69;5101744;27;20046;-71
2022/08/10 04:07:20;;;;;;;5.55;3.47;;;;;;;18.85;50.42;101170.72;5105241;28;20043;-73
2022/08/10 04:09:47;;;;;;;6.93;3.72;;;;;;;18.97;50.30;101188.66;5105417;27;20055;-72
2022/08/10 04:12:22;;;;;;;6.97;3.50;;;;;;;18.92;50.35;101193.47;5113504;27;20038;-73
2022/08/10 04:14:49;;;;;;;7.13;3.28;;;;;;;18.96;50.51;101194.97;5107775;27;20082;-75
2022/08/10 04:17:24;;;;;;;4.80;3.30;;;;;;;18.96;50.35;101194.13;5110548;27;20482;-75
2022/08/10 04:20:28;;;;;;;5.90;3.40;;;;;;;18.99;50.33;101197.44;5104202;27;20054;-75
2022/08/10 04:23:04;;;;;;;4.55;3.60;;;;;;;19.04;50.26;101203.38;5107428;27;20484;-74
2022/08/10 04:25:31;;;;;;;4.78;3.15;;;;;;;19.05;50.47;101206.88;5101703;27;20055;-72
2022/08/10 04:27:59;;;;;;;4.30;3.30;;;;;;;18.90;50.71;101195.38;5111105;27;20130;-71
2022/08/10 04:30:27;;;;;;;3.80;3.20;;;;;;;18.94;50.91;101213.00;5103182;28;20541;-75
2022/08/10 04:32:58;;;;;;;6.30;4.00;;;;;;;18.89;50.83;101207.94;5105620;27;20080;-75
2022/08/10 04:35:26;;;;;;;;;;;;;;;18.90;51.01;101211.50;5109798;27;20059;-74
2022/08/10 04:37:55;;;;;;;5.25;3.08;;;;;;;18.85;51.19;101217.19;5109098;27;19928;-73
2022/08/10 04:40:22;;;;;;;8.77;3.70;;;;;;;18.82;51.38;101221.91;5101463;27;20056;-76
2022/08/10 04:42:58;;;;;;;6.00;3.40;;;;;;;18.78;51.59;101217.69;5109772;27;20075;-75
2022/08/10 04:45:27;;;;;;;6.72;3.25;;;;;;;18.61;51.75;101183.97;5107747;28;20122;-74
2022/08/10 04:48:14;;;;;;;3.88;3.47;;;;;;;18.81;51.84;101222.88;5097105;27;20075;-76
2022/08/10 04:51:01;;;;;;;4.07;3.35;;;;;;;18.76;52.01;101211.56;5105595;27;20138;-74
2022/08/10 04:53:29;;;;;;;4.82;3.42;;;;;;;18.74;52.57;101218.88;5104213;27;20040;-76
2022/08/10 04:55:56;;;;;;;4.22;2.97;;;;;;;18.76;51.94;101225.00;5104630;27;20043;-73
2022/08/10 04:58:23;;;;;;;5.35;3.70;;;;;;;18.78;52.28;101220.38;5107742;27;20126;-75
2022/08/10 05:00:49;;;;;;;4.03;3.63;;;;;;;18.70;52.31;101214.69;5098102;28;20047;-75
2022/08/10 05:03:16;;;;;;;9.35;3.85;;;;;;;18.65;52.35;101198.91;5103452;27;20491;-73
2022/08/10 05:05:43;;;;;;;7.60;3.58;;;;;;;18.76;52.00;101223.16;5104071;27;20132;-75
2022/08/10 05:08:09;;;;;;;4.95;3.78;;;;;;;18.78;51.92;101218.56;5107104;27;20134;-76
2022/08/10 05:10:36;;;;;;;5.50;3.22;;;;;;;18.78;51.91;101223.94;5103944;27;20056;-75
2022/08/10 05:13:02;;;;;;;5.50;3.47;;;;;;;18.86;52.18;101226.97;5103737;27;20131;-76
2022/08/10 05:15:29;;;;;;;7.38;3.80;;;;;;;18.92;52.26;101229.22;5106582;27;20071;-74
2022/08/10 05:17:55;;;;;;;4.72;3.10;;;;;;;18.99;51.70;101232.34;5102295;27;20067;-75
2022/08/10 05:20:37;;;;;;;4.57;3.50;;;;;;;19.05;51.57;101226.53;5103826;27;20539;-75
2022/08/10 05:23:04;;;;;;;4.18;3.28;;;;;;;19.10;51.07;101224.41;5102010;28;20188;-76
2022/08/10 05:25:30;;;;;;;5.68;3.40;;;;;;;19.17;51.37;101230.22;5104472;27;20068;-72
2022/08/10 05:28:03;;;;;;;5.22;3.67;;;;;;;19.16;50.94;101221.31;5107445;27;20040;-75
2022/08/10 05:30:33;;;;;;;4.75;3.22;;;;;;;19.24;51.33;101229.66;5104724;27;20329;-75
2022/08/10 05:32:59;;;;;;;8.38;3.85;;;;;;;19.20;51.68;101219.28;5106860;27;20115;-72
2022/08/10 05:35:32;;;;;;;5.05;3.40;;;;;;;19.27;51.74;101234.81;5105058;28;20056;-75
2022/08/10 05:38:21;;;;;;;3.97;3.45;;;;;;;19.26;51.36;101225.06;5101281;27;20051;-76
2022/08/10 05:40:48;;;;;;;5.45;3.35;;;;;;;19.26;51.78;101208.94;5101775;27;20122;-74
2022/08/10 05:43:17;;;;;;;4.20;3.50;;;;;;;19.28;51.51;101201.63;5099388;28;20075;-76
2022/08/10 05:45:44;;;;;;;6.45;3.40;;;;;;;19.49;50.52;101230.66;5103930;28;20040;-76
2022/08/10 05:48:31;;;;;;;5.85;3.15;;;;;;;19.63;50.77;101241.31;5102098;28;20065;-74
2022/08/10 05:51:19;;;;;;;6.55;3.55;;;;;;;19.67;50.26;101226.69;5098715;28;20443;-76
2022/08/10 05:53:46;;;;;;;6.10;3.45;;;;;;;19.82;50.46;101243.53;5100751;28;20505;-75
2022/08/10 05:56:30;;;;;;;5.45;3.25;;;;;;;19.92;50.30;101239.19;5098121;28;20126;-74
2022/08/10 05:59:17;;;;;;;5.80;3.60;;;;;;;19.89;49.56;101229.53;5092953;28;20148;-73
2022/08/10 06:02:05;;;;;;;7.68;3.60;;;;;;;20.07;50.02;101231.84;5098917;28;20070;-75
2022/08/10 06:04:54;;;;;;;6.18;3.20;;;;;;;20.21;48.72;101237.06;5097102;28;20417;-75
2022/08/10 06:07:25;;;;;;;8.60;3.67;;;;;;;20.31;48.13;101238.09;5100085;28;20483;-76
2022/08/10 06:09:55;;;;;;;5.68;3.70;;;;;;;20.16;48.49;101198.88;5093303;28;20091;-73
2022/08/10 06:12:27;;;;;;;5.53;3.60;;;;;;;20.43;48.54;101239.06;5109963;28;20049;-75
2022/08/10 06:15:01;;;;;;;6.20;3.50;;;;;;;20.45;48.82;101227.22;5113029;28;20070;-76
2022/08/10 06:17:32;;;;;;;6.93;3.05;;;;;;;20.59;49.18;101242.31;5111936;28;20454;-73
2022/08/10 06:19:59;;;;;;;7.68;3.00;;;;;;;20.56;48.59;101208.41;5093717;28;20048;-76
2022/08/10 06:22:29;;;;;;;3.55;3.17;;;;;;;20.95;47.71;101227.84;5094628;28;20109;-77
2022/08/10 06:24:56;;;;;;;5.50;3.42;;;;;;;21.24;46.81;101234.59;5104016;27;20043;-77
2022/08/10 06:27:44;;;;;;;5.55;3.53;;;;;;;21.63;45.97;101248.56;5103414;27;20051;-75
2022/08/10 06:30:11;;;;;;;4.50;3.05;;;;;;;21.89;45.05;101235.69;5102686;27;20056;-73
2022/08/10 06:32:49;;;;;;;4.53;2.88;;;;;;;22.26;44.83;101241.66;5100381;27;20529;-75
2022/08/10 06:35:17;;;;;;;7.72;3.28;;;;;;;22.58;44.03;101245.25;5104204;27;20135;-74
2022/08/10 06:37:46;;;;;;;5.63;3.15;;;;;;;23.04;43.15;101244.06;5103141;27;20092;-74
2022/08/10 06:40:17;;;;;;;3.92;3.03;;;;;;;23.40;41.69;101250.84;5107455;27;20059;-74
2022/08/10 06:42:49;;;;;;;4.43;3.13;;;;;;;23.59;42.28;101247.44;5100013;28;20105;-75
2022/08/10 06:45:22;;;;;;;5.28;3.17;;;;;;;23.68;41.06;101227.69;5106410;27;20105;-74
2022/08/10 06:47:51;;;;;;;9.13;3.30;;;;;;;23.96;40.58;101240.44;5108059;27;20100;-74
2022/08/10 06:50:29;;;;;;;6.35;3.67;;;;;;;24.13;39.50;101234.38;5102108;28;20035;-76
2022/08/10 06:53:29;;;;;;;5.28;3.60;;;;;;;24.37;39.35;101252.13;5103076;28;20501;-73
2022/08/10 06:56:20;;;;;;;4.88;3.08;;;;;;;24.34;40.32;101222.63;5100162;27;20452;-75
2022/08/10 06:59:18;;;;;;;8.32;3.10;;;;;;;24.65;38.70;101245.88;5102788;28;20155;-75
2022/08/10 07:02:02;;;;;;;7.38;3.25;;;;;;;24.90;38.73;101247.13;5103072;28;20048;-74
2022/08/10 07:04:33;;;;;;;6.07;3.45;;;;;;;25.04;37.41;101248.56;5097719;27;20862;-74
2022/08/10 07:07:03;;;;;;;7.60;3.20;;;;;;;25.11;38.84;101247.00;5100302;28;20040;-75
2022/08/10 07:09:33;;;;;;;8.38;3.15;;;;;;;25.25;38.50;101242.97;5102239;27;20044;-71
2022/08/10 07:12:01;;;;;;;4.47;3.35;;;;;;;25.47;36.06;101235.38;5100349;28;20046;-76
2022/08/10 07:14:40;;;;;;;6.30;3.50;;;;;;;25.53;36.47;101253.75;5095450;27;20130;-76
2022/08/10 07:17:11;;;;;;;3.15;2.83;;;;;;;25.59;35.89;101251.44;5099089;28;20052;-75
2022/08/10 07:19:44;;;;;;;6.10;2.85;;;;;;;25.57;36.60;101243.47;5099022;28;20067;-75
2022/08/10 07:22:20;;;;;;;6.47;3.03;;;;;;;25.61;36.19;101227.75;5100794;28;20710;-76
2022/08/10 07:25:09;;;;;;;4.95;3.00;;;;;;;25.96;35.52;101244.19;5100867;28;20070;-75
2022/08/10 07:27:38;;;;;;;4.97;2.97;;;;;;;26.08;36.42;101258.41;5101098;28;20175;-75
2022/08/10 07:30:27;;;;;;;4.18;2.88;;;;;;;25.95;35.91;101252.47;5107104;27;20134;-75
2022/08/10 07:32:55;;;;;;;5.05;3.10;;;;;;;25.86;36.38;101248.78;5101284;27;20126;-74
2022/08/10 07:35:24;;;;;;;5.18;3.05;;;;;;;25.75;36.52;101228.16;5106138;28;20083;-75
2022/08/10 07:37:53;;;;;;;7.20;3.23;;;;;;;26.02;36.51;101261.72;5098825;28;20469;-73
2022/08/10 07:40:21;;;;;;;4.47;2.67;;;;;;;26.06;36.30;101254.97;5099453;28;20080;-76
2022/08/10 07:42:52;;;;;;;4.43;2.90;;;;;;;26.37;35.09;101253.69;5099692;27;20071;-77
2022/08/10 07:45:19;;;;;;;3.30;3.00;;;;;;;26.56;34.70;101252.69;5096842;27;20863;-73
2022/08/10 07:48:00;;;;;;;9.65;3.28;;;;;;;26.58;34.93;101253.41;5099077;28;20553;-73
2022/08/10 07:50:38;;;;;;;5.47;3.15;;;;;;;26.75;35.74;101252.53;5111265;27;20051;-77
2022/08/10 07:53:11;;;;;;;4.93;3.28;;;;;;;26.91;34.02;101235.53;5116506;27;20043;-76
2022/08/10 07:55:42;;;;;;;5.75;3.10;;;;;;;27.28;33.88;101259.78;5107821;27;20058;-77
2022/08/10 07:58:37;;;;;;;4.40;2.78;;;;;;;27.54;33.63;101263.38;5102423;27;20044;-78
2022/08/10 08:01:04;;;;;;;5.90;2.83;;;;;;;27.89;32.00;101261.53;5105080;28;20052;-74
2022/08/10 08:03:32;;;;;;;7.88;2.90;;;;;;;28.01;32.08;101264.81;5106133;28;20044;-76
2022/08/10 08:06:00;;;;;;;4.65;2.80;;;;;;;28.21;31.37;101267.13;5101051;28;20048;-76
2022/08/10 08:08:32;;;;;;;5.00;2.70;;;;;;;28.36;31.69;101253.72;5095059;27;20050;-71
2022/08/10 08:10:59;;;;;;;6.13;2.90;;;;;;;28.38;31.57;101246.22;5102687;28;20052;-75
2022/08/10 08:13:28;;;;;;;5.00;3.05;;;;;;;28.54;30.54;101256.31;5100249;28;20048;-76
2022/08/10 08:15:57;;;;;;;7.30;2.88;;;;;;;28.71;30.27;101236.25;5096882;28;20414;-72
2022/08/10 08:18:45;;;;;;;5.53;2.72;;;;;;;29.00;30.19;101257.56;5095342;28;20048;-73
2022/08/10 08:21:24;;;;;;;4.00;2.58;;;;;;;29.22;30.04;101258.75;5106413;28;20120;-75
2022/08/10 08:24:14;;;;;;;5.88;2.80;;;;;;;28.65;30.37;101255.16;5103108;28;20043;-75
2022/08/10 08:27:00;;;;;;;3.17;2.42;;;;;;;28.43;30.45;101257.50;5103879;28;20073;-78
2022/08/10 08:29:28;;;;;;;3.95;2.50;;;;;;;28.34;30.29;101252.16;5105270;27;20494;-75
2022/08/10 08:31:56;;;;;;;6.50;3.00;;;;;;;28.04;31.11;101227.22;5105445;27;20442;-71
2022/08/10 08:34:35;;;;;;;7.22;2.47;;;;;;;28.13;30.97;101255.34;5100614;27;20044;-72
2022/08/10 08:37:03;;;;;;;3.72;2.70;;;;;;;27.93;31.00;101254.75;5107403;27;20048;-74
2022/08/10 08:39:31;;;;;;;5.25;2.53;;;;;;;27.45;32.31;101245.28;5099137;27;20079;-72
2022/08/10 08:42:26;;;;;;;4.35;2.38;;;;;;;27.05;33.28;101256.75;5100108;27;20039;-76
2022/08/10 08:45:18;;;;;;;4.38;2.88;;;;;;;26.85;33.05;101231.56;5104431;27;20516;-77
2022/08/10 08:48:07;;;;;;;4.07;2.70;;;;;;;27.16;33.37;101248.31;5103535;27;20134;-75
2022/08/10 08:51:09;;;;;;;3.45;2.72;;;;;;;27.44;33.28;101248.16;5100380;28;20040;-77
2022/08/10 08:53:36;;;;;;;5.07;2.60;;;;;;;27.63;32.93;101237.06;5113103;27;20112;-74
2022/08/10 08:57:04;;;;;;;6.65;2.50;;;;;;;27.85;32.12;101236.53;5113487;27;20126;-74
2022/08/10 08:59:52;;;;;;;4.72;2.63;;;;;;;27.87;32.01;101239.91;5091271;28;20039;-72
2022/08/10 09:02:28;;;;;;;4.50;2.33;;;;;;;28.28;31.83;101231.91;5104095;28;20403;-75
2022/08/10 09:05:04;;;;;;;3.40;2.42;;;;;;;28.70;30.97;101215.44;5102468;27;20044;-74
2022/08/10 09:07:53;;;;;;;3.60;2.47;;;;;;;28.93;30.34;101235.59;5095901;28;20444;-75
2022/08/10 09:11:00;;;;;;;4.25;2.40;;;;;;;29.23;30.14;101234.03;5105248;27;20051;-74
2022/08/10 09:13:36;;;;;;;2.45;2.15;;;;;;;29.42;29.68;101230.13;5109539;27;20112;-74
2022/08/10 09:16:24;;;;;;;5.07;2.50;;;;;;;29.50;28.93;101232.81;5106482;28;20043;-74
2022/08/10 09:19:09;;;;;;;3.95;2.03;;;;;;;29.56;28.52;101223.09;5106339;28;20082;-75
2022/08/10 09:21:56;;;;;;;2.58;2.10;;;;;;;29.38;28.69;101209.63;5101069;27;20073;-74
2022/08/10 09:24:44;;;;;;;6.53;2.28;;;;;;;29.13;29.20;101229.78;5096312;28;20074;-73
2022/08/10 09:27:25;;;;;;;2.90;2.10;;;;;;;28.70;29.83;101223.63;5104858;28;20548;-72
2022/08/10 09:30:03;;;;;;;4.70;2.30;;;;;;;28.35;30.16;101194.81;5105540;28;20052;-73
2022/08/10 09:33:12;;;;;;;3.50;2.42;;;;;;;28.39;30.37;101209.81;5107819;27;20068;-74
2022/08/10 09:36:14;;;;;;;3.65;2.33;;;;;;;28.33;30.51;101212.38;5037580;28;20535;-77
2022/08/10 09:39:34;;;;;;;5.97;2.55;;;;;;;28.23;31.13;101213.34;5041781;28;20045;-76
2022/08/10 09:42:39;;;;;;;3.22;2.30;;;;;;;28.00;31.01;101217.69;5104693;28;20096;-74
2022/08/10 09:45:27;;;;;;;10.60;2.90;;;;;;;27.75;31.62;101191.38;5104991;28;20048;-76
2022/08/10 09:48:18;;;;;;;4.97;2.40;;;;;;;27.82;31.58;101193.28;5102285;28;20051;-75
2022/08/10 09:51:08;;;;;;;2.75;2.20;;;;;;;27.90;31.18;101212.34;5089513;28;20059;-78
2022/08/10 09:54:00;;;;;;;4.95;3.15;;;;;;;27.81;31.88;101205.19;5094396;27;20063;-75
2022/08/10 09:56:35;;;;;;;5.25;2.53;;;;;;;27.77;31.97;101194.78;5094649;28;20043;-75
2022/08/10 09:59:34;;;;;;;5.00;2.70;;;;;;;27.66;32.42;101193.22;5099715;28;20051;-75
2022/08/10 10:02:27;;;;;;;4.33;2.27;;;;;;;27.80;31.90;101178.13;5098248;28;20493;-76
2022/08/10 10:05:12;;;;;;;4.55;2.53;;;;;;;27.92;30.98;101165.91;5100846;28;20044;-78
2022/08/10 10:07:47;;;;;;;4.10;2.20;;;;;;;28.23;31.04;101172.50;5100389;28;20491;-77
2022/08/10 10:10:21;;;;;;;5.22;2.20;;;;;;;28.45;30.92;101171.00;5100555;27;20105;-76
2022/08/10 10:13:11;;;;;;;4.15;2.20;;;;;;;28.76;29.97;101165.72;5102730;28;20093;-75
2022/08/10 10:15:58;;;;;;;2.67;2.15;;;;;;;29.11;29.62;101163.66;5098570;28;20138;-77
2022/08/10 10:18:27;;;;;;;2.45;2.03;;;;;;;29.15;28.03;101154.94;5099059;28;20087;-79
2022/08/10 10:21:10;;;;;;;5.53;2.00;;;;;;;29.24;27.67;101161.25;5104934;27;20046;-79
2022/08/10 10:24:14;;;;;;;2.15;1.90;;;;;;;29.27;27.03;101141.81;5095305;28;20044;-78
2022/08/10 10:26:58;;;;;;;3.00;2.20;;;;;;;29.23;26.73;101140.44;5090735;28;20530;-76
2022/08/10 10:29:48;;;;;;;2.33;2.00;;;;;;;29.21;26.93;101146.06;5102374;28;20505;-78
2022/08/10 10:32:46;;;;;;;4.38;1.95;;;;;;;29.23;27.10;101152.19;5100754;28;20071;-77
2022/08/10 10:35:31;;;;;;;2.03;1.80;;;;;;;29.36;26.69;101138.00;5097181;28;20047;-76
2022/08/10 10:38:01;;;;;;;3.00;1.60;;;;;;;29.34;27.13;101129.13;5100062;28;20100;-74
2022/08/10 10:40:40;;;;;;;2.83;1.75;;;;;;;29.23;26.02;101140.44;5097810;28;20043;-78
2022/08/10 10:43:34;;;;;;;1.58;1.45;;;;;;;29.22;25.31;101134.13;5110711;28;20577;-77
2022/08/10 10:46:12;;;;;;;1.90;1.67;;;;;;;29.38;25.15;101132.38;5094587;28;20467;-76
2022/08/10 10:48:58;;;;;;;3.35;2.00;;;;;;;29.43;24.44;101119.94;5101319;28;20060;-74
2022/08/10 10:51:37;;;;;;;2.45;1.52;;;;;;;29.37;23.75;101126.06;5097745;28;20085;-78
2022/08/10 10:54:14;;;;;;;2.38;1.50;;;;;;;29.34;23.98;101120.97;5090869;28;20172;-74
2022/08/10 10:57:02;;;;;;;3.03;1.38;;;;;;;29.38;23.68;101126.91;5104206;28;20077;-74
2022/08/10 10:59:57;;;;;;;2.97;1.48;;;;;;;29.61;24.66;101116.94;5098177;28;20367;-78
2022/08/10 11:03:02;;;;;;;2.95;1.30;;;;;;;29.65;24.04;101108.22;5099926;28;20040;-77
2022/08/10 11:05:46;;;;;;;2.03;1.13;;;;;;;29.73;24.09;101114.69;5093809;28;20495;-77
2022/08/10 11:08:23;;;;;;;4.95;1.52;;;;;;;29.65;23.21;101113.69;5097523;28;20124;-76
2022/08/10 11:11:01;;;;;;;2.35;1.35;;;;;;;29.67;23.75;101103.44;5093613;27;20074;-76
2022/08/10 11:13:56;;;;;;;2.40;1.40;;;;;;;29.82;23.61;101108.97;5112391;28;20063;-77
2022/08/10 11:16:48;;;;;;;3.15;1.60;;;;;;;29.92;23.77;101092.34;5105993;27;20126;-77
2022/08/10 11:19:37;;;;;;;3.63;1.48;;;;;;;29.80;24.04;101085.63;5108436;27;20134;-76
2022/08/10 11:22:44;;;;;;;2.97;1.75;;;;;;;29.83;24.04;101107.09;5106236;27;20043;-75
2022/08/10 11:25:30;;;;;;;2.45;1.63;;;;;;;29.70;24.04;101091.31;5096499;28;20105;-77
2022/08/10 11:28:12;;;;;;;2.75;1.55;;;;;;;29.72;24.15;101085.69;5113526;27;20067;-78
2022/08/10 11:30:44;;;;;;;3.67;1.85;;;;;;;29.71;24.40;101076.66;5109311;28;20660;-78
2022/08/10 11:33:30;;;;;;;3.50;1.65;;;;;;;29.90;24.08;101092.56;5108607;27;20074;-78
2022/08/10 11:36:25;;;;;;;2.80;1.38;;;;;;;29.96;24.27;101083.63;5121350;28;20048;-73
2022/08/10 11:39:23;;;;;;;3.15;1.70;;;;;;;30.02;24.36;101075.78;5111415;27;20085;-75
2022/08/10 11:41:57;;;;;;;5.15;2.08;;;;;;;29.75;24.36;101063.50;5103428;27;20048;-75
2022/08/10 11:45:01;;;;;;;3.13;1.70;;;;;;;29.96;24.19;101083.63;5095418;27;20590;-76
2022/08/10 11:47:30;;;;;;;;;;;;;;;30.12;23.78;101095.50;5097177;27;20445;-76
2022/08/10 11:50:23;;;;;;;2.50;1.70;;;;;;;30.14;23.50;101083.38;5101403;27;19923;-79
2022/08/10 11:52:55;;;;;;;2.28;1.30;;;;;;;30.25;23.44;101087.53;5099121;27;20050;-78
2022/08/10 11:55:24;;;;;;;2.35;2.00;;;;;;;30.26;23.06;101081.91;5104014;27;20074;-77
2022/08/10 11:57:58;;;;;;;3.28;1.70;;;;;;;30.24;23.43;101069.44;5097828;27;20081;-74
2022/08/10 12:00:30;;;;;;;2.75;1.60;;;;;;;30.31;23.55;101084.94;5097349;27;20075;-78
2022/08/10 12:03:02;;;;;;;3.33;1.58;;;;;;;30.32;23.32;101074.84;5103093;27;20062;-77
2022/08/10 12:05:34;;;;;;;4.10;1.70;;;;;;;30.19;23.72;101048.16;5117742;27;20047;-75
2022/08/10 12:08:22;;;;;;;3.85;1.52;;;;;;;30.39;23.29;101061.28;5107007;27;20043;-75
2022/08/10 12:11:12;;;;;;;2.67;1.60;;;;;;;30.36;23.62;101051.59;5107422;27;20078;-77
2022/08/10 12:14:07;;;;;;;1.95;1.60;;;;;;;30.31;23.34;101049.41;5110981;27;20055;-76
2022/08/10 12:16:51;;;;;;;1.70;1.58;;;;;;;30.41;23.06;101053.75;5107070;28;20059;-78